createdAt,value
2022-11-17T00:02:52.945Z,11.04
2022-11-17T00:05:54.834Z,11.34
2022-11-17T00:08:56.679Z,11.55
2022-11-17T00:12:22.352Z,11.59
2022-11-17T00:15:24.695Z,11.40
2022-11-17T00:18:45.250Z,12.22
2022-11-17T00:21:47.153Z,10.90
2022-11-17T00:24:49.201Z,10.70
2022-11-17T00:27:50.985Z,11.56
2022-11-17T00:31:11.753Z,11.29
2022-11-17T00:34:14.852Z,11.71
2022-11-17T00:37:17.031Z,11.67
2022-11-17T00:40:18.903Z,11.47
2022-11-17T00:43:20.751Z,11.37
2022-11-17T00:46:22.862Z,11.56
2022-11-17T00:49:27.671Z,12.04
2022-11-17T00:52:29.507Z,11.55
2022-11-17T00:55:31.460Z,11.96
2022-11-17T00:58:35.522Z,11.10
2022-11-17T01:01:37.854Z,11.12
2022-11-17T01:04:39.736Z,11.38
2022-11-17T01:07:41.628Z,11.38
2022-11-17T01:10:43.450Z,11.60
2022-11-17T01:13:45.851Z,11.48
2022-11-17T01:16:47.668Z,10.86
2022-11-17T01:19:49.457Z,10.06
2022-11-17T01:22:51.303Z,11.27
2022-11-17T01:25:53.127Z,10.62
2022-11-17T01:28:55.351Z,11.08
2022-11-17T01:31:57.195Z,11.74
2022-11-17T01:34:59.012Z,11.29
2022-11-17T01:38:00.797Z,11.60
2022-11-17T01:41:04.026Z,11.38
2022-11-17T01:44:24.645Z,10.64
2022-11-17T01:47:28.800Z,11.39
2022-11-17T01:50:37.805Z,10.76
2022-11-17T01:53:39.635Z,10.84
2022-11-17T01:56:42.329Z,11.62
2022-11-17T01:59:49.246Z,11.12
2022-11-17T02:02:51.088Z,11.23
2022-11-17T02:06:16.622Z,11.48
2022-11-17T02:09:18.486Z,12.04
2022-11-17T02:12:20.713Z,10.96
2022-11-17T02:15:22.695Z,11.00
2022-11-17T02:18:24.464Z,10.55
2022-11-17T02:21:33.649Z,10.17
2022-11-17T02:24:41.537Z,9.86
2022-11-17T02:27:49.666Z,9.76
2022-11-17T02:31:10.497Z,10.25
2022-11-17T02:34:16.835Z,10.73
2022-11-17T02:37:29.323Z,11.09
2022-11-17T02:40:32.358Z,10.62
2022-11-17T02:43:54.414Z,10.88
2022-11-17T02:46:58.199Z,10.33
2022-11-17T02:50:01.705Z,10.37
2022-11-17T02:53:03.535Z,10.97
2022-11-17T02:56:05.476Z,11.28
2022-11-17T02:59:07.343Z,10.31
2022-11-17T03:02:12.187Z,9.98
2022-11-17T03:05:27.618Z,10.38
2022-11-17T03:08:33.273Z,11.13
2022-11-17T03:11:40.120Z,10.49
2022-11-17T03:14:41.909Z,9.87
2022-11-17T03:17:46.761Z,9.47
2022-11-17T03:20:54.735Z,9.39
2022-11-17T03:24:00.888Z,9.83
2022-11-17T03:27:10.769Z,10.37
2022-11-17T03:30:12.896Z,10.34
2022-11-17T03:33:15.772Z,9.50
2022-11-17T03:36:19.353Z,9.08
2022-11-17T03:39:24.332Z,9.39
2022-11-17T03:42:27.868Z,10.15
2022-11-17T03:45:39.584Z,9.39
2022-11-17T03:48:43.721Z,9.61
2022-11-17T03:51:45.541Z,10.13
2022-11-17T03:54:47.393Z,9.88
2022-11-17T03:57:51.920Z,10.14
2022-11-17T04:00:53.749Z,10.21
2022-11-17T04:03:55.540Z,9.32
2022-11-17T04:06:57.427Z,8.97
2022-11-17T04:09:59.291Z,9.42
2022-11-17T04:13:19.507Z,9.69
2022-11-17T04:16:21.308Z,9.83
2022-11-17T04:19:23.219Z,9.88
2022-11-17T04:22:25.041Z,10.53
2022-11-17T04:25:46.848Z,10.26
2022-11-17T04:28:49.672Z,9.77
2022-11-17T04:31:51.502Z,10.05
2022-11-17T04:34:53.358Z,10.80
2022-11-17T04:37:55.141Z,10.81
2022-11-17T04:41:35.838Z,11.18
2022-11-17T04:44:37.641Z,10.99
2022-11-17T04:47:39.540Z,9.50
2022-11-17T04:50:41.379Z,9.56
2022-11-17T04:53:43.532Z,9.77
2022-11-17T04:56:45.528Z,10.21
2022-11-17T04:59:47.359Z,9.98
2022-11-17T05:02:49.198Z,9.40
2022-11-17T05:05:51.004Z,8.81
2022-11-17T05:08:56.044Z,8.97
2022-11-17T05:12:16.522Z,8.80
2022-11-17T05:15:38.268Z,9.10
2022-11-17T05:18:40.376Z,9.07
2022-11-17T05:21:42.195Z,9.44
2022-11-17T05:24:44.003Z,9.69
2022-11-17T05:27:45.810Z,9.70
2022-11-17T05:30:47.601Z,9.10
2022-11-17T05:33:49.402Z,9.81
2022-11-17T05:36:51.204Z,10.38
2022-11-17T05:39:52.989Z,10.19
2022-11-17T05:42:57.169Z,10.07
2022-11-17T05:45:59.156Z,9.47
2022-11-17T05:49:00.989Z,9.46
2022-11-17T05:52:02.865Z,10.10
2022-11-17T05:55:04.877Z,10.45
2022-11-17T05:58:10.898Z,9.62
2022-11-17T06:01:13.209Z,10.74
2022-11-17T06:04:15.480Z,10.80
2022-11-17T06:07:18.256Z,10.88
2022-11-17T06:10:20.277Z,10.59
2022-11-17T06:13:26.184Z,10.53
2022-11-17T06:16:28.720Z,9.96
2022-11-17T06:19:34.929Z,10.23
2022-11-17T06:22:36.754Z,10.30
2022-11-17T06:25:38.721Z,10.53
2022-11-17T06:28:40.963Z,9.96
2022-11-17T06:31:42.869Z,10.37
2022-11-17T06:34:49.131Z,10.48
2022-11-17T06:37:53.883Z,11.01
2022-11-17T06:40:55.856Z,11.12
2022-11-17T06:43:57.781Z,10.90
2022-11-17T06:46:59.613Z,11.20
2022-11-17T06:50:01.477Z,11.05
2022-11-17T06:53:04.546Z,10.34
2022-11-17T06:56:09.818Z,9.55
2022-11-17T06:59:11.722Z,11.16
2022-11-17T07:02:13.610Z,11.17
2022-11-17T07:05:15.452Z,11.55
2022-11-17T07:08:19.198Z,11.79
2022-11-17T07:11:21.191Z,10.70
2022-11-17T07:14:23.428Z,11.53
2022-11-17T07:17:25.456Z,12.15
2022-11-17T07:20:27.428Z,12.24
2022-11-17T07:23:29.797Z,11.05
2022-11-17T07:26:31.722Z,10.98
2022-11-17T07:29:33.671Z,11.65
2022-11-17T07:32:35.533Z,11.50
2022-11-17T07:35:37.502Z,12.19
2022-11-17T07:38:40.208Z,12.57
2022-11-17T07:41:42.442Z,13.00
2022-11-17T07:44:44.412Z,13.10
2022-11-17T07:47:46.864Z,12.99
2022-11-17T07:50:48.819Z,11.73
2022-11-17T07:53:50.682Z,11.39
2022-11-17T07:56:52.798Z,10.44
2022-11-17T07:59:54.754Z,10.63
2022-11-17T08:03:00.003Z,11.04
2022-11-17T08:06:03.124Z,10.68
2022-11-17T08:09:06.406Z,11.04
2022-11-17T08:12:08.850Z,11.22
2022-11-17T08:15:11.454Z,11.61
2022-11-17T08:18:13.608Z,10.60
2022-11-17T08:21:15.770Z,11.04
2022-11-17T08:24:17.867Z,11.04
2022-11-17T08:27:20.013Z,11.68
2022-11-17T08:30:22.194Z,11.52
2022-11-17T08:33:24.266Z,12.24
2022-11-17T08:36:26.266Z,11.78
2022-11-17T08:39:28.613Z,11.59
2022-11-17T08:42:30.512Z,11.64
2022-11-17T08:45:32.418Z,11.54
2022-11-17T08:48:34.566Z,11.70
2022-11-17T08:51:37.023Z,12.39
2022-11-17T08:54:38.862Z,12.76
2022-11-17T08:57:40.790Z,12.80
2022-11-17T09:00:43.031Z,11.87
2022-11-17T09:03:45.542Z,12.28
2022-11-17T09:06:47.394Z,11.69
2022-11-17T09:09:49.328Z,12.69
2022-11-17T09:12:55.020Z,12.05
2022-11-17T09:16:00.469Z,12.43
2022-11-17T09:19:02.866Z,12.90
2022-11-17T09:22:05.435Z,12.96
2022-11-17T09:25:13.030Z,12.81
2022-11-17T09:28:15.599Z,12.52
2022-11-17T09:31:19.026Z,12.05
2022-11-17T09:34:23.512Z,11.79
2022-11-17T09:37:26.526Z,12.36
2022-11-17T09:40:31.889Z,13.02
2022-11-17T09:43:38.023Z,11.58
2022-11-17T09:46:58.611Z,12.06
2022-11-17T09:50:03.713Z,12.55
2022-11-17T09:53:05.535Z,12.39
2022-11-17T09:56:07.965Z,12.16
2022-11-17T09:59:12.331Z,12.34
2022-11-17T10:02:14.287Z,12.09
2022-11-17T10:05:20.194Z,11.60
2022-11-17T10:08:38.238Z,13.64
2022-11-17T10:11:41.291Z,14.23
2022-11-17T10:14:43.187Z,12.55
2022-11-17T10:17:45.115Z,13.52
2022-11-17T10:20:47.277Z,12.95
2022-11-17T10:23:55.539Z,12.87
2022-11-17T10:26:57.402Z,13.22
2022-11-17T10:30:00.453Z,12.97
2022-11-17T10:33:03.287Z,13.60
2022-11-17T10:36:14.431Z,13.96
2022-11-17T10:39:33.046Z,13.81
2022-11-17T10:42:34.875Z,13.11
2022-11-17T10:45:36.808Z,12.29
2022-11-17T10:48:39.425Z,13.03
2022-11-17T10:51:41.361Z,13.61
2022-11-17T10:54:43.514Z,13.08
2022-11-17T10:57:46.212Z,12.72
2022-11-17T11:00:52.220Z,13.94
2022-11-17T11:03:55.626Z,12.04
2022-11-17T11:07:08.481Z,13.16
2022-11-17T11:10:10.447Z,13.38
2022-11-17T11:13:24.873Z,13.43
2022-11-17T11:16:27.249Z,13.77
2022-11-17T11:19:29.187Z,14.18
2022-11-17T11:23:00.514Z,13.06
2022-11-17T11:26:12.330Z,13.76
2022-11-17T11:29:26.591Z,14.34
2022-11-17T11:32:37.835Z,13.33
2022-11-17T11:35:57.785Z,13.62
2022-11-17T11:39:18.490Z,13.34
2022-11-17T11:42:20.423Z,14.21
2022-11-17T11:45:24.318Z,14.29
2022-11-17T11:48:32.411Z,14.19
2022-11-17T11:51:35.178Z,15.11
2022-11-17T11:54:40.507Z,14.05
2022-11-17T11:57:45.189Z,13.75
2022-11-17T12:00:47.292Z,14.27
2022-11-17T12:04:09.743Z,13.30
2022-11-17T12:07:17.889Z,14.43
2022-11-17T12:10:38.480Z,13.39
2022-11-17T12:13:47.284Z,13.24
2022-11-17T12:16:51.855Z,13.90
2022-11-17T12:19:55.445Z,13.91
2022-11-17T12:23:06.595Z,14.15
2022-11-17T12:26:08.611Z,14.77
2022-11-17T12:29:20.140Z,13.45
2022-11-17T12:32:57.735Z,14.13
2022-11-17T12:36:28.501Z,13.41
2022-11-17T12:39:51.207Z,14.44
2022-11-17T12:43:31.798Z,14.31
2022-11-17T12:46:33.702Z,14.58
2022-11-17T12:49:38.865Z,14.49
2022-11-17T12:52:43.475Z,16.02
2022-11-17T12:55:45.343Z,16.60
2022-11-17T12:59:05.919Z,15.98
2022-11-17T13:02:17.723Z,15.40
2022-11-17T13:05:20.759Z,16.84
2022-11-17T13:08:25.787Z,16.91
2022-11-17T13:11:27.813Z,17.20
2022-11-17T13:14:31.172Z,17.09
2022-11-17T13:17:45.008Z,18.71
2022-11-17T13:20:48.063Z,16.53
2022-11-17T13:23:49.912Z,15.77
2022-11-17T13:26:58.073Z,15.85
2022-11-17T13:30:23.223Z,16.17
2022-11-17T13:33:25.254Z,16.66
2022-11-17T13:36:27.554Z,16.43
2022-11-17T13:39:29.490Z,13.91
2022-11-17T13:42:31.959Z,14.19
2022-11-17T13:45:34.027Z,13.48
2022-11-17T13:48:36.881Z,13.27
2022-11-17T13:51:39.383Z,13.56
2022-11-17T13:54:43.274Z,13.50
2022-11-17T13:58:04.735Z,13.79
2022-11-17T14:01:06.786Z,13.08
2022-11-17T14:04:19.357Z,13.97
2022-11-17T14:07:29.311Z,13.12
2022-11-17T14:10:34.395Z,13.77
2022-11-17T14:13:42.475Z,13.86
2022-11-17T14:16:44.664Z,14.27
2022-11-17T14:19:46.851Z,14.42
2022-11-17T14:23:08.544Z,14.32
2022-11-17T14:26:20.682Z,14.93
2022-11-17T14:29:22.557Z,14.51
2022-11-17T14:32:24.452Z,14.48
2022-11-17T14:35:26.394Z,14.12
2022-11-17T14:38:30.691Z,14.31
2022-11-17T14:41:32.572Z,15.05
2022-11-17T14:44:34.562Z,15.06
2022-11-17T14:47:36.717Z,15.04
2022-11-17T14:50:38.728Z,14.99
2022-11-17T14:53:42.038Z,14.25
2022-11-17T14:56:44.422Z,13.94
2022-11-17T14:59:46.619Z,13.82
2022-11-17T15:02:48.627Z,14.01
2022-11-17T15:05:50.505Z,13.92
2022-11-17T15:08:59.942Z,14.03
2022-11-17T15:12:01.850Z,13.28
2022-11-17T15:15:05.306Z,13.82
2022-11-17T15:18:07.264Z,14.28
2022-11-17T15:21:09.836Z,13.97
2022-11-17T15:24:12.401Z,13.44
2022-11-17T15:27:14.693Z,14.30
2022-11-17T15:30:17.227Z,14.43
2022-11-17T15:33:19.246Z,13.58
2022-11-17T15:36:21.631Z,12.92
2022-11-17T15:39:23.813Z,12.73
2022-11-17T15:42:25.922Z,13.64
2022-11-17T15:45:28.104Z,14.06
2022-11-17T15:48:30.841Z,13.71
2022-11-17T15:51:32.997Z,12.44
2022-11-17T15:54:34.922Z,12.58
2022-11-17T15:57:36.994Z,13.70
2022-11-17T16:00:40.313Z,13.12
2022-11-17T16:03:43.474Z,13.54
2022-11-17T16:06:46.464Z,12.81
2022-11-17T16:09:50.292Z,12.23
2022-11-17T16:12:52.320Z,12.77
2022-11-17T16:15:54.578Z,13.52
2022-11-17T16:18:57.087Z,13.84
2022-11-17T16:21:58.942Z,13.54
2022-11-17T16:25:00.802Z,13.79
2022-11-17T16:28:02.749Z,12.83
2022-11-17T16:31:33.993Z,13.91
2022-11-17T16:34:38.509Z,14.02
2022-11-17T16:37:40.708Z,14.00
2022-11-17T16:40:42.757Z,13.80
2022-11-17T16:43:44.848Z,13.78
2022-11-17T16:46:47.516Z,14.23
2022-11-17T16:49:51.792Z,13.17
2022-11-17T16:52:53.962Z,13.27
2022-11-17T16:55:55.907Z,13.24
2022-11-17T16:58:58.818Z,13.58
2022-11-17T17:02:00.851Z,14.03
2022-11-17T17:05:02.707Z,14.02
2022-11-17T17:08:04.657Z,14.00
2022-11-17T17:11:10.154Z,14.08
2022-11-17T17:14:12.618Z,13.85
2022-11-17T17:17:14.495Z,13.95
2022-11-17T17:20:16.308Z,13.52
2022-11-17T17:23:18.586Z,13.12
2022-11-17T17:26:22.295Z,13.34
2022-11-17T17:29:24.188Z,13.42
2022-11-17T17:32:26.081Z,13.11
2022-11-17T17:35:27.918Z,13.19
2022-11-17T17:38:29.848Z,12.77
2022-11-17T17:41:33.290Z,13.21
2022-11-17T17:44:35.181Z,13.53
2022-11-17T17:47:37.058Z,13.31
2022-11-17T17:50:40.315Z,13.34
2022-11-17T17:53:42.434Z,13.38
2022-11-17T17:56:44.413Z,13.62
2022-11-17T17:59:46.568Z,13.41
2022-11-17T18:02:48.887Z,11.92
2022-11-17T18:05:50.852Z,12.61
2022-11-17T18:08:52.805Z,13.30
2022-11-17T18:11:54.683Z,13.10
2022-11-17T18:14:56.621Z,13.62
2022-11-17T18:17:58.571Z,12.26
2022-11-17T18:21:07.407Z,13.32
2022-11-17T18:24:10.025Z,13.48
2022-11-17T18:27:11.913Z,13.47
2022-11-17T18:30:13.910Z,13.55
2022-11-17T18:33:16.436Z,12.93
2022-11-17T18:36:18.423Z,13.81
2022-11-17T18:39:21.329Z,13.40
2022-11-17T18:42:23.385Z,13.33
2022-11-17T18:45:25.498Z,13.50
2022-11-17T18:48:27.379Z,13.07
2022-11-17T18:51:30.219Z,13.00
2022-11-17T18:54:32.187Z,12.42
2022-11-17T18:57:34.018Z,12.28
2022-11-17T19:00:36.009Z,12.90
2022-11-17T19:03:38.527Z,12.92
2022-11-17T19:06:40.503Z,13.10
2022-11-17T19:09:42.424Z,12.92
2022-11-17T19:12:44.324Z,12.88
2022-11-17T19:15:46.148Z,12.77
2022-11-17T19:18:48.619Z,12.38
2022-11-17T19:21:50.523Z,12.59
2022-11-17T19:24:52.427Z,12.31
2022-11-17T19:27:54.362Z,12.60
2022-11-17T19:31:00.260Z,12.51
2022-11-17T19:34:02.169Z,12.00
2022-11-17T19:37:03.997Z,12.49
2022-11-17T19:40:06.110Z,12.28
2022-11-17T19:43:07.965Z,11.87
2022-11-17T19:46:11.982Z,11.92
2022-11-17T19:49:14.292Z,11.99
2022-11-17T19:52:16.356Z,12.57
2022-11-17T19:55:18.312Z,11.91
2022-11-17T19:58:20.366Z,12.31
2022-11-17T20:01:26.172Z,12.00
2022-11-17T20:04:28.146Z,12.41
2022-11-17T20:07:30.123Z,12.77
2022-11-17T20:10:32.654Z,12.13
2022-11-17T20:13:34.919Z,12.72
2022-11-17T20:16:38.717Z,12.07
2022-11-17T20:19:40.573Z,12.65
2022-11-17T20:22:42.671Z,12.95
2022-11-17T20:25:45.062Z,12.15
2022-11-17T20:28:47.899Z,13.09
2022-11-17T20:31:49.881Z,12.91
2022-11-17T20:34:51.691Z,12.87
2022-11-17T20:37:53.567Z,13.17
2022-11-17T20:40:58.999Z,12.81
2022-11-17T20:44:01.883Z,13.02
2022-11-17T20:47:03.878Z,12.69
2022-11-17T20:50:06.028Z,12.48
2022-11-17T20:53:07.986Z,12.33
2022-11-17T20:56:10.343Z,11.96
2022-11-17T20:59:18.501Z,11.90
2022-11-17T21:02:21.790Z,11.81
2022-11-17T21:05:23.663Z,11.92
2022-11-17T21:08:26.096Z,12.94
2022-11-17T21:12:03.632Z,12.30
2022-11-17T21:15:06.600Z,12.98
2022-11-17T21:18:25.667Z,12.77
2022-11-17T21:21:27.802Z,12.88
2022-11-17T21:24:29.751Z,12.60
2022-11-17T21:27:31.594Z,12.44
2022-11-17T21:30:33.866Z,12.52
2022-11-17T21:33:36.112Z,12.38
2022-11-17T21:36:37.921Z,12.44
2022-11-17T21:39:39.760Z,12.65
2022-11-17T21:42:41.639Z,12.61
2022-11-17T21:45:43.609Z,12.55
2022-11-17T21:48:45.651Z,12.59
2022-11-17T21:51:47.520Z,12.77
2022-11-17T21:54:49.395Z,12.30
2022-11-17T21:57:51.564Z,11.92
2022-11-17T22:00:53.507Z,12.69
2022-11-17T22:03:55.489Z,12.23
2022-11-17T22:06:57.396Z,12.90
2022-11-17T22:09:59.324Z,12.97
2022-11-17T22:13:01.381Z,13.18
2022-11-17T22:16:04.305Z,12.96
2022-11-17T22:19:06.267Z,12.86
2022-11-17T22:22:08.264Z,12.71
2022-11-17T22:25:37.534Z,12.99
2022-11-17T22:28:31.963Z,12.29
2022-11-17T22:31:33.912Z,11.84
2022-11-17T22:34:35.824Z,12.17
2022-11-17T22:37:37.678Z,12.85
2022-11-17T22:40:40.062Z,12.79
2022-11-17T22:43:41.851Z,13.08
2022-11-17T22:46:43.702Z,13.01
2022-11-17T22:49:45.537Z,12.57
2022-11-17T22:52:48.587Z,12.98
2022-11-17T22:55:50.423Z,13.01
2022-11-17T22:58:55.468Z,12.23
2022-11-17T23:02:01.489Z,12.32
2022-11-17T23:05:03.462Z,12.31
2022-11-17T23:08:09.512Z,11.98
2022-11-17T23:14:33.775Z,12.32
2022-11-17T23:17:35.627Z,12.05
2022-11-17T23:20:37.610Z,12.48
2022-11-17T23:23:40.738Z,13.12
2022-11-17T23:26:42.897Z,12.99
2022-11-17T23:29:44.714Z,12.77
2022-11-17T23:32:46.578Z,11.96
2022-11-17T23:35:48.409Z,11.54
2022-11-17T23:38:50.560Z,12.23
2022-11-17T23:41:52.361Z,12.74
2022-11-17T23:44:54.263Z,12.41
2022-11-17T23:47:56.050Z,11.83
2022-11-17T23:50:58.072Z,12.13
2022-11-17T23:54:00.364Z,11.66
2022-11-17T23:57:02.281Z,11.24
